sensor_id;sensor_type;location;lat;lon;timestamp;P1;durP1;ratioP1;P2;durP2;ratioP2
41532;SDS011;27262;-35.248;149.138;2023-04-21T00:01:29;1.77;;;1.05;;
41532;SDS011;27262;-35.248;149.138;2023-04-21T00:04:00;2.67;;;1.10;;
41532;SDS011;27262;-35.248;149.138;2023-04-21T00:06:31;1.58;;;1.15;;
41532;SDS011;27262;-35.248;149.138;2023-04-21T00:09:01;2.03;;;1.10;;
41532;SDS011;27262;-35.248;149.138;2023-04-21T00:11:32;1.75;;;1.10;;
41532;SDS011;27262;-35.248;149.138;2023-04-21T00:14:03;3.55;;;1.38;;
41532;SDS011;27262;-35.248;149.138;2023-04-21T00:16:33;2.45;;;1.42;;
41532;SDS011;27262;-35.248;149.138;2023-04-21T00:19:04;4.32;;;1.10;;
41532;SDS011;27262;-35.248;149.138;2023-04-21T00:21:35;2.53;;;1.45;;
41532;SDS011;27262;-35.248;149.138;2023-04-21T00:24:06;2.35;;;1.15;;
41532;SDS011;27262;-35.248;149.138;2023-04-21T00:26:36;2.28;;;1.20;;
41532;SDS011;27262;-35.248;149.138;2023-04-21T00:29:06;2.95;;;1.10;;
41532;SDS011;27262;-35.248;149.138;2023-04-21T00:31:36;2.20;;;1.00;;
41532;SDS011;27262;-35.248;149.138;2023-04-21T00:34:07;3.60;;;1.42;;
41532;SDS011;27262;-35.248;149.138;2023-04-21T00:36:37;1.25;;;0.93;;
41532;SDS011;27262;-35.248;149.138;2023-04-21T00:39:08;1.58;;;0.80;;
41532;SDS011;27262;-35.248;149.138;2023-04-21T00:41:38;1.02;;;0.93;;
41532;SDS011;27262;-35.248;149.138;2023-04-21T00:44:09;1.50;;;1.00;;
41532;SDS011;27262;-35.248;149.138;2023-04-21T00:46:39;2.97;;;1.15;;
41532;SDS011;27262;-35.248;149.138;2023-04-21T00:49:10;1.77;;;1.30;;
41532;SDS011;27262;-35.248;149.138;2023-04-21T00:51:41;2.17;;;0.93;;
41532;SDS011;27262;-35.248;149.138;2023-04-21T00:54:11;2.13;;;1.25;;
41532;SDS011;27262;-35.248;149.138;2023-04-21T00:56:43;2.75;;;1.20;;
41532;SDS011;27262;-35.248;149.138;2023-04-21T00:59:13;2.40;;;1.00;;
41532;SDS011;27262;-35.248;149.138;2023-04-21T01:01:44;5.75;;;1.70;;
41532;SDS011;27262;-35.248;149.138;2023-04-21T01:04:14;2.67;;;1.02;;
41532;SDS011;27262;-35.248;149.138;2023-04-21T01:06:45;5.55;;;1.40;;
41532;SDS011;27262;-35.248;149.138;2023-04-21T01:09:15;2.40;;;1.23;;
41532;SDS011;27262;-35.248;149.138;2023-04-21T01:11:59;1.83;;;1.27;;
41532;SDS011;27262;-35.248;149.138;2023-04-21T01:14:30;2.00;;;1.40;;
41532;SDS011;27262;-35.248;149.138;2023-04-21T01:17:01;1.52;;;1.10;;
41532;SDS011;27262;-35.248;149.138;2023-04-21T01:19:38;2.58;;;1.15;;
41532;SDS011;27262;-35.248;149.138;2023-04-21T01:22:11;2.30;;;1.50;;
41532;SDS011;27262;-35.248;149.138;2023-04-21T01:24:46;6.32;;;1.85;;
41532;SDS011;27262;-35.248;149.138;2023-04-21T01:27:17;2.20;;;1.27;;
41532;SDS011;27262;-35.248;149.138;2023-04-21T01:29:49;2.83;;;1.50;;
41532;SDS011;27262;-35.248;149.138;2023-04-21T01:32:21;3.03;;;1.38;;
41532;SDS011;27262;-35.248;149.138;2023-04-21T01:34:54;2.80;;;1.50;;
41532;SDS011;27262;-35.248;149.138;2023-04-21T01:37:30;2.20;;;1.40;;
41532;SDS011;27262;-35.248;149.138;2023-04-21T01:40:02;3.65;;;1.55;;
41532;SDS011;27262;-35.248;149.138;2023-04-21T01:42:36;3.22;;;1.20;;
41532;SDS011;27262;-35.248;149.138;2023-04-21T01:45:08;3.70;;;1.55;;
41532;SDS011;27262;-35.248;149.138;2023-04-21T01:47:40;6.07;;;1.52;;
41532;SDS011;27262;-35.248;149.138;2023-04-21T01:50:10;3.38;;;1.55;;
41532;SDS011;27262;-35.248;149.138;2023-04-21T01:52:41;8.25;;;1.60;;
41532;SDS011;27262;-35.248;149.138;2023-04-21T01:55:11;4.38;;;1.30;;
41532;SDS011;27262;-35.248;149.138;2023-04-21T01:57:42;2.13;;;1.25;;
41532;SDS011;27262;-35.248;149.138;2023-04-21T02:00:12;1.63;;;1.27;;
41532;SDS011;27262;-35.248;149.138;2023-04-21T02:02:43;2.17;;;1.38;;
41532;SDS011;27262;-35.248;149.138;2023-04-21T02:05:13;1.98;;;1.27;;
41532;SDS011;27262;-35.248;149.138;2023-04-21T02:07:44;3.78;;;1.27;;
41532;SDS011;27262;-35.248;149.138;2023-04-21T02:10:14;2.72;;;1.50;;
41532;SDS011;27262;-35.248;149.138;2023-04-21T02:12:45;3.05;;;1.92;;
41532;SDS011;27262;-35.248;149.138;2023-04-21T02:15:15;7.82;;;1.70;;
41532;SDS011;27262;-35.248;149.138;2023-04-21T02:17:45;5.00;;;1.50;;
41532;SDS011;27262;-35.248;149.138;2023-04-21T02:20:15;5.65;;;1.55;;
41532;SDS011;27262;-35.248;149.138;2023-04-21T02:22:46;6.03;;;1.60;;
41532;SDS011;27262;-35.248;149.138;2023-04-21T02:25:16;3.58;;;1.63;;
41532;SDS011;27262;-35.248;149.138;2023-04-21T02:27:47;6.85;;;1.58;;
41532;SDS011;27262;-35.248;149.138;2023-04-21T02:30:17;4.70;;;1.83;;
41532;SDS011;27262;-35.248;149.138;2023-04-21T02:32:48;5.28;;;1.60;;
41532;SDS011;27262;-35.248;149.138;2023-04-21T02:35:18;5.03;;;2.08;;
41532;SDS011;27262;-35.248;149.138;2023-04-21T02:37:48;14.70;;;2.17;;
41532;SDS011;27262;-35.248;149.138;2023-04-21T02:40:19;10.35;;;2.17;;
41532;SDS011;27262;-35.248;149.138;2023-04-21T02:42:49;6.22;;;2.10;;
41532;SDS011;27262;-35.248;149.138;2023-04-21T02:45:19;11.90;;;1.92;;
41532;SDS011;27262;-35.248;149.138;2023-04-21T02:47:49;5.90;;;1.75;;
41532;SDS011;27262;-35.248;149.138;2023-04-21T02:50:19;10.93;;;2.13;;
41532;SDS011;27262;-35.248;149.138;2023-04-21T02:52:50;7.00;;;1.90;;
41532;SDS011;27262;-35.248;149.138;2023-04-21T02:55:20;13.43;;;2.03;;
41532;SDS011;27262;-35.248;149.138;2023-04-21T02:57:50;9.15;;;2.83;;
41532;SDS011;27262;-35.248;149.138;2023-04-21T03:00:21;5.45;;;1.77;;
41532;SDS011;27262;-35.248;149.138;2023-04-21T03:02:51;5.88;;;1.92;;
41532;SDS011;27262;-35.248;149.138;2023-04-21T03:05:21;5.22;;;1.33;;
41532;SDS011;27262;-35.248;149.138;2023-04-21T03:07:52;8.25;;;1.40;;
41532;SDS011;27262;-35.248;149.138;2023-04-21T03:10:22;7.93;;;2.08;;
41532;SDS011;27262;-35.248;149.138;2023-04-21T03:12:52;4.78;;;2.05;;
41532;SDS011;27262;-35.248;149.138;2023-04-21T03:15:24;5.40;;;1.50;;
41532;SDS011;27262;-35.248;149.138;2023-04-21T03:17:54;6.05;;;1.73;;
41532;SDS011;27262;-35.248;149.138;2023-04-21T03:20:24;3.90;;;1.33;;
41532;SDS011;27262;-35.248;149.138;2023-04-21T03:22:55;7.50;;;2.17;;
41532;SDS011;27262;-35.248;149.138;2023-04-21T03:25:25;7.75;;;1.77;;
41532;SDS011;27262;-35.248;149.138;2023-04-21T03:27:56;7.03;;;1.85;;
41532;SDS011;27262;-35.248;149.138;2023-04-21T03:30:26;4.03;;;1.80;;
41532;SDS011;27262;-35.248;149.138;2023-04-21T03:32:56;3.67;;;1.75;;
41532;SDS011;27262;-35.248;149.138;2023-04-21T03:35:27;4.00;;;1.45;;
41532;SDS011;27262;-35.248;149.138;2023-04-21T03:37:58;4.10;;;1.50;;
41532;SDS011;27262;-35.248;149.138;2023-04-21T03:40:30;8.30;;;1.98;;
41532;SDS011;27262;-35.248;149.138;2023-04-21T03:43:00;4.93;;;1.60;;
41532;SDS011;27262;-35.248;149.138;2023-04-21T03:45:30;4.65;;;1.73;;
41532;SDS011;27262;-35.248;149.138;2023-04-21T03:48:03;6.55;;;1.90;;
41532;SDS011;27262;-35.248;149.138;2023-04-21T03:50:34;5.97;;;1.63;;
41532;SDS011;27262;-35.248;149.138;2023-04-21T03:53:04;5.25;;;1.65;;
41532;SDS011;27262;-35.248;149.138;2023-04-21T03:55:34;4.93;;;2.00;;
41532;SDS011;27262;-35.248;149.138;2023-04-21T03:58:04;3.53;;;1.98;;
41532;SDS011;27262;-35.248;149.138;2023-04-21T04:00:35;5.18;;;1.73;;
41532;SDS011;27262;-35.248;149.138;2023-04-21T04:03:05;1.60;;;1.15;;
41532;SDS011;27262;-35.248;149.138;2023-04-21T04:05:36;8.10;;;1.92;;
41532;SDS011;27262;-35.248;149.138;2023-04-21T04:08:06;4.90;;;1.67;;
41532;SDS011;27262;-35.248;149.138;2023-04-21T04:10:37;3.47;;;1.73;;
41532;SDS011;27262;-35.248;149.138;2023-04-21T04:13:07;3.45;;;1.60;;
41532;SDS011;27262;-35.248;149.138;2023-04-21T04:15:37;3.97;;;1.58;;
41532;SDS011;27262;-35.248;149.138;2023-04-21T04:18:08;2.78;;;1.67;;
41532;SDS011;27262;-35.248;149.138;2023-04-21T04:20:38;4.72;;;2.15;;
41532;SDS011;27262;-35.248;149.138;2023-04-21T04:23:08;4.43;;;1.90;;
41532;SDS011;27262;-35.248;149.138;2023-04-21T04:25:39;3.00;;;1.90;;
41532;SDS011;27262;-35.248;149.138;2023-04-21T04:28:10;6.47;;;2.03;;
41532;SDS011;27262;-35.248;149.138;2023-04-21T04:30:40;4.15;;;1.40;;
41532;SDS011;27262;-35.248;149.138;2023-04-21T04:33:11;2.35;;;1.70;;
41532;SDS011;27262;-35.248;149.138;2023-04-21T04:35:42;2.58;;;1.70;;
41532;SDS011;27262;-35.248;149.138;2023-04-21T04:38:12;4.03;;;1.48;;
41532;SDS011;27262;-35.248;149.138;2023-04-21T04:40:55;3.55;;;1.60;;
41532;SDS011;27262;-35.248;149.138;2023-04-21T04:43:26;7.68;;;2.03;;
41532;SDS011;27262;-35.248;149.138;2023-04-21T04:45:56;3.17;;;1.70;;
41532;SDS011;27262;-35.248;149.138;2023-04-21T04:48:30;5.93;;;2.13;;
41532;SDS011;27262;-35.248;149.138;2023-04-21T04:51:00;5.88;;;2.08;;
41532;SDS011;27262;-35.248;149.138;2023-04-21T04:53:30;7.65;;;1.92;;
41532;SDS011;27262;-35.248;149.138;2023-04-21T04:56:00;4.38;;;1.85;;
41532;SDS011;27262;-35.248;149.138;2023-04-21T04:58:31;5.35;;;1.80;;
41532;SDS011;27262;-35.248;149.138;2023-04-21T05:01:11;5.05;;;1.65;;
41532;SDS011;27262;-35.248;149.138;2023-04-21T05:03:42;6.50;;;2.00;;
41532;SDS011;27262;-35.248;149.138;2023-04-21T05:06:13;5.25;;;1.80;;
41532;SDS011;27262;-35.248;149.138;2023-04-21T05:08:43;7.25;;;1.80;;
41532;SDS011;27262;-35.248;149.138;2023-04-21T05:11:14;5.57;;;2.10;;
41532;SDS011;27262;-35.248;149.138;2023-04-21T05:13:44;8.02;;;2.10;;
41532;SDS011;27262;-35.248;149.138;2023-04-21T05:16:14;11.00;;;2.83;;
41532;SDS011;27262;-35.248;149.138;2023-04-21T05:18:45;6.32;;;2.17;;
41532;SDS011;27262;-35.248;149.138;2023-04-21T05:21:24;9.07;;;2.28;;
41532;SDS011;27262;-35.248;149.138;2023-04-21T05:23:58;4.47;;;2.55;;
41532;SDS011;27262;-35.248;149.138;2023-04-21T05:26:28;6.85;;;2.63;;
41532;SDS011;27262;-35.248;149.138;2023-04-21T05:28:59;5.13;;;2.35;;
41532;SDS011;27262;-35.248;149.138;2023-04-21T05:31:29;8.18;;;2.75;;
41532;SDS011;27262;-35.248;149.138;2023-04-21T05:34:00;4.88;;;2.55;;
41532;SDS011;27262;-35.248;149.138;2023-04-21T05:36:30;4.70;;;2.67;;
41532;SDS011;27262;-35.248;149.138;2023-04-21T05:39:01;5.68;;;2.58;;
41532;SDS011;27262;-35.248;149.138;2023-04-21T05:41:31;3.30;;;2.30;;
41532;SDS011;27262;-35.248;149.138;2023-04-21T05:44:01;7.32;;;3.00;;
41532;SDS011;27262;-35.248;149.138;2023-04-21T05:46:32;5.72;;;2.75;;
41532;SDS011;27262;-35.248;149.138;2023-04-21T05:49:02;6.18;;;3.33;;
41532;SDS011;27262;-35.248;149.138;2023-04-21T05:51:33;5.65;;;2.75;;
41532;SDS011;27262;-35.248;149.138;2023-04-21T05:54:03;7.80;;;3.42;;
41532;SDS011;27262;-35.248;149.138;2023-04-21T05:56:33;6.65;;;3.33;;
41532;SDS011;27262;-35.248;149.138;2023-04-21T05:59:03;5.10;;;3.25;;
41532;SDS011;27262;-35.248;149.138;2023-04-21T06:01:34;4.82;;;3.55;;
41532;SDS011;27262;-35.248;149.138;2023-04-21T06:04:04;6.15;;;3.53;;
41532;SDS011;27262;-35.248;149.138;2023-04-21T06:06:35;6.75;;;3.78;;
41532;SDS011;27262;-35.248;149.138;2023-04-21T06:09:05;5.90;;;3.25;;
41532;SDS011;27262;-35.248;149.138;2023-04-21T06:11:36;9.35;;;3.38;;
41532;SDS011;27262;-35.248;149.138;2023-04-21T06:14:06;12.15;;;3.60;;
41532;SDS011;27262;-35.248;149.138;2023-04-21T06:16:36;6.80;;;3.50;;
41532;SDS011;27262;-35.248;149.138;2023-04-21T06:19:06;6.28;;;3.65;;
41532;SDS011;27262;-35.248;149.138;2023-04-21T06:21:37;7.72;;;3.72;;
41532;SDS011;27262;-35.248;149.138;2023-04-21T06:24:07;15.70;;;3.67;;
41532;SDS011;27262;-35.248;149.138;2023-04-21T06:26:37;10.90;;;3.90;;
41532;SDS011;27262;-35.248;149.138;2023-04-21T06:29:08;8.20;;;3.72;;
41532;SDS011;27262;-35.248;149.138;2023-04-21T06:31:38;12.27;;;3.97;;
41532;SDS011;27262;-35.248;149.138;2023-04-21T06:34:08;8.18;;;4.20;;
41532;SDS011;27262;-35.248;149.138;2023-04-21T06:36:38;11.82;;;3.95;;
41532;SDS011;27262;-35.248;149.138;2023-04-21T06:39:09;15.82;;;4.10;;
41532;SDS011;27262;-35.248;149.138;2023-04-21T06:41:42;10.98;;;4.30;;
41532;SDS011;27262;-35.248;149.138;2023-04-21T06:44:12;26.27;;;4.38;;
41532;SDS011;27262;-35.248;149.138;2023-04-21T06:46:43;17.38;;;4.30;;
41532;SDS011;27262;-35.248;149.138;2023-04-21T06:49:14;17.65;;;4.78;;
41532;SDS011;27262;-35.248;149.138;2023-04-21T06:51:45;25.65;;;5.40;;
41532;SDS011;27262;-35.248;149.138;2023-04-21T06:54:15;31.05;;;4.88;;
41532;SDS011;27262;-35.248;149.138;2023-04-21T06:56:46;19.05;;;4.95;;
41532;SDS011;27262;-35.248;149.138;2023-04-21T06:59:18;19.75;;;5.20;;
41532;SDS011;27262;-35.248;149.138;2023-04-21T07:01:49;16.50;;;4.97;;
41532;SDS011;27262;-35.248;149.138;2023-04-21T07:04:22;19.48;;;5.72;;
41532;SDS011;27262;-35.248;149.138;2023-04-21T07:06:57;16.02;;;4.40;;
41532;SDS011;27262;-35.248;149.138;2023-04-21T07:09:29;17.85;;;4.65;;
41532;SDS011;27262;-35.248;149.138;2023-04-21T07:12:01;17.50;;;4.50;;
41532;SDS011;27262;-35.248;149.138;2023-04-21T07:14:31;16.38;;;4.78;;
41532;SDS011;27262;-35.248;149.138;2023-04-21T07:17:01;15.30;;;4.53;;
41532;SDS011;27262;-35.248;149.138;2023-04-21T07:19:32;19.20;;;5.68;;
41532;SDS011;27262;-35.248;149.138;2023-04-21T07:22:02;24.05;;;5.60;;
41532;SDS011;27262;-35.248;149.138;2023-04-21T07:24:32;23.08;;;5.05;;
41532;SDS011;27262;-35.248;149.138;2023-04-21T07:27:03;24.27;;;5.28;;
41532;SDS011;27262;-35.248;149.138;2023-04-21T07:29:33;18.98;;;4.85;;
41532;SDS011;27262;-35.248;149.138;2023-04-21T07:32:04;20.30;;;5.60;;
41532;SDS011;27262;-35.248;149.138;2023-04-21T07:34:34;12.23;;;4.68;;
41532;SDS011;27262;-35.248;149.138;2023-04-21T07:37:05;13.30;;;4.88;;
41532;SDS011;27262;-35.248;149.138;2023-04-21T07:39:35;18.27;;;5.25;;
41532;SDS011;27262;-35.248;149.138;2023-04-21T07:42:05;18.88;;;5.15;;
41532;SDS011;27262;-35.248;149.138;2023-04-21T07:44:36;11.07;;;4.95;;
41532;SDS011;27262;-35.248;149.138;2023-04-21T07:47:06;17.05;;;5.22;;
41532;SDS011;27262;-35.248;149.138;2023-04-21T07:49:36;11.48;;;5.07;;
41532;SDS011;27262;-35.248;149.138;2023-04-21T07:52:06;10.80;;;4.80;;
41532;SDS011;27262;-35.248;149.138;2023-04-21T07:54:37;12.75;;;4.78;;
41532;SDS011;27262;-35.248;149.138;2023-04-21T07:57:07;12.13;;;4.78;;
41532;SDS011;27262;-35.248;149.138;2023-04-21T07:59:38;13.82;;;4.30;;
41532;SDS011;27262;-35.248;149.138;2023-04-21T08:02:08;10.27;;;4.28;;
41532;SDS011;27262;-35.248;149.138;2023-04-21T08:04:39;15.00;;;4.70;;
41532;SDS011;27262;-35.248;149.138;2023-04-21T08:07:09;7.03;;;4.47;;
41532;SDS011;27262;-35.248;149.138;2023-04-21T08:09:40;10.10;;;4.53;;
41532;SDS011;27262;-35.248;149.138;2023-04-21T08:12:11;14.00;;;4.63;;
41532;SDS011;27262;-35.248;149.138;2023-04-21T08:14:41;12.68;;;4.63;;
41532;SDS011;27262;-35.248;149.138;2023-04-21T08:17:12;9.80;;;4.15;;
41532;SDS011;27262;-35.248;149.138;2023-04-21T08:19:42;12.68;;;5.03;;
41532;SDS011;27262;-35.248;149.138;2023-04-21T08:22:13;9.50;;;3.65;;
41532;SDS011;27262;-35.248;149.138;2023-04-21T08:24:43;12.00;;;4.47;;
41532;SDS011;27262;-35.248;149.138;2023-04-21T08:27:13;7.03;;;4.30;;
41532;SDS011;27262;-35.248;149.138;2023-04-21T08:29:44;8.73;;;4.22;;
41532;SDS011;27262;-35.248;149.138;2023-04-21T08:32:15;15.68;;;4.80;;
41532;SDS011;27262;-35.248;149.138;2023-04-21T08:34:51;10.50;;;4.43;;
41532;SDS011;27262;-35.248;149.138;2023-04-21T08:37:23;10.35;;;4.60;;
41532;SDS011;27262;-35.248;149.138;2023-04-21T08:39:53;7.28;;;4.25;;
41532;SDS011;27262;-35.248;149.138;2023-04-21T08:42:23;7.45;;;4.00;;
41532;SDS011;27262;-35.248;149.138;2023-04-21T08:44:54;7.10;;;4.07;;
41532;SDS011;27262;-35.248;149.138;2023-04-21T08:47:24;7.25;;;4.03;;
41532;SDS011;27262;-35.248;149.138;2023-04-21T08:49:55;6.95;;;3.95;;
41532;SDS011;27262;-35.248;149.138;2023-04-21T08:52:25;7.57;;;3.70;;
41532;SDS011;27262;-35.248;149.138;2023-04-21T08:54:56;7.28;;;3.45;;
41532;SDS011;27262;-35.248;149.138;2023-04-21T08:57:26;9.05;;;4.15;;
41532;SDS011;27262;-35.248;149.138;2023-04-21T08:59:57;7.15;;;3.55;;
41532;SDS011;27262;-35.248;149.138;2023-04-21T09:02:27;10.95;;;4.07;;
41532;SDS011;27262;-35.248;149.138;2023-04-21T09:04:58;6.68;;;3.72;;
41532;SDS011;27262;-35.248;149.138;2023-04-21T09:07:32;10.80;;;4.35;;
41532;SDS011;27262;-35.248;149.138;2023-04-21T09:10:09;6.78;;;4.13;;
41532;SDS011;27262;-35.248;149.138;2023-04-21T09:12:39;5.85;;;4.07;;
41532;SDS011;27262;-35.248;149.138;2023-04-21T09:15:09;6.38;;;4.45;;
41532;SDS011;27262;-35.248;149.138;2023-04-21T09:17:40;7.32;;;3.78;;
41532;SDS011;27262;-35.248;149.138;2023-04-21T09:20:15;5.13;;;3.78;;
41532;SDS011;27262;-35.248;149.138;2023-04-21T09:22:48;6.45;;;3.30;;
41532;SDS011;27262;-35.248;149.138;2023-04-21T09:25:19;8.32;;;3.67;;
41532;SDS011;27262;-35.248;149.138;2023-04-21T09:27:50;6.78;;;4.07;;
41532;SDS011;27262;-35.248;149.138;2023-04-21T09:30:25;4.32;;;3.67;;
41532;SDS011;27262;-35.248;149.138;2023-04-21T09:32:58;5.60;;;3.45;;
41532;SDS011;27262;-35.248;149.138;2023-04-21T09:35:39;4.90;;;3.75;;
41532;SDS011;27262;-35.248;149.138;2023-04-21T09:38:10;7.95;;;3.67;;
41532;SDS011;27262;-35.248;149.138;2023-04-21T09:40:41;6.30;;;3.47;;
41532;SDS011;27262;-35.248;149.138;2023-04-21T09:43:11;6.35;;;3.80;;
41532;SDS011;27262;-35.248;149.138;2023-04-21T09:45:42;5.72;;;3.38;;
41532;SDS011;27262;-35.248;149.138;2023-04-21T09:48:12;5.60;;;3.72;;
41532;SDS011;27262;-35.248;149.138;2023-04-21T09:50:48;6.00;;;3.42;;
41532;SDS011;27262;-35.248;149.138;2023-04-21T09:53:24;4.78;;;3.38;;
41532;SDS011;27262;-35.248;149.138;2023-04-21T09:55:56;7.53;;;3.75;;
41532;SDS011;27262;-35.248;149.138;2023-04-21T09:58:27;5.43;;;3.50;;
41532;SDS011;27262;-35.248;149.138;2023-04-21T10:01:05;6.95;;;3.63;;
41532;SDS011;27262;-35.248;149.138;2023-04-21T10:03:37;6.13;;;3.67;;
41532;SDS011;27262;-35.248;149.138;2023-04-21T10:06:08;5.78;;;3.38;;
41532;SDS011;27262;-35.248;149.138;2023-04-21T10:08:40;7.07;;;3.38;;
41532;SDS011;27262;-35.248;149.138;2023-04-21T10:11:11;4.95;;;3.72;;
41532;SDS011;27262;-35.248;149.138;2023-04-21T10:13:42;7.47;;;3.38;;
41532;SDS011;27262;-35.248;149.138;2023-04-21T10:16:13;6.28;;;3.47;;
41532;SDS011;27262;-35.248;149.138;2023-04-21T10:18:47;7.93;;;3.78;;
41532;SDS011;27262;-35.248;149.138;2023-04-21T10:21:19;6.15;;;3.80;;
41532;SDS011;27262;-35.248;149.138;2023-04-21T10:23:51;6.82;;;3.78;;
41532;SDS011;27262;-35.248;149.138;2023-04-21T10:26:23;3.50;;;2.78;;
41532;SDS011;27262;-35.248;149.138;2023-04-21T10:29:04;4.95;;;3.33;;
41532;SDS011;27262;-35.248;149.138;2023-04-21T10:31:36;6.20;;;3.45;;
41532;SDS011;27262;-35.248;149.138;2023-04-21T10:34:12;5.25;;;3.05;;
41532;SDS011;27262;-35.248;149.138;2023-04-21T10:42:23;3.75;;;2.97;;
41532;SDS011;27262;-35.248;149.138;2023-04-21T10:47:27;4.47;;;2.97;;
41532;SDS011;27262;-35.248;149.138;2023-04-21T10:50:00;7.85;;;3.20;;
41532;SDS011;27262;-35.248;149.138;2023-04-21T10:53:08;4.47;;;3.33;;
41532;SDS011;27262;-35.248;149.138;2023-04-21T10:55:40;4.65;;;3.50;;
41532;SDS011;27262;-35.248;149.138;2023-04-21T10:58:18;4.32;;;3.58;;
41532;SDS011;27262;-35.248;149.138;2023-04-21T11:00:53;6.03;;;3.65;;
41532;SDS011;27262;-35.248;149.138;2023-04-21T11:03:24;3.13;;;2.83;;
41532;SDS011;27262;-35.248;149.138;2023-04-21T11:06:12;3.70;;;3.10;;
41532;SDS011;27262;-35.248;149.138;2023-04-21T11:08:56;4.80;;;3.80;;
41532;SDS011;27262;-35.248;149.138;2023-04-21T11:11:26;3.60;;;3.00;;
41532;SDS011;27262;-35.248;149.138;2023-04-21T11:13:59;4.85;;;3.50;;
41532;SDS011;27262;-35.248;149.138;2023-04-21T11:16:30;5.20;;;3.50;;
41532;SDS011;27262;-35.248;149.138;2023-04-21T11:19:01;3.80;;;3.47;;
41532;SDS011;27262;-35.248;149.138;2023-04-21T11:21:32;3.90;;;3.30;;
41532;SDS011;27262;-35.248;149.138;2023-04-21T11:24:03;4.30;;;3.40;;
41532;SDS011;27262;-35.248;149.138;2023-04-21T11:26:34;3.40;;;3.10;;
41532;SDS011;27262;-35.248;149.138;2023-04-21T11:29:10;6.10;;;3.22;;
41532;SDS011;27262;-35.248;149.138;2023-04-21T11:31:42;3.55;;;3.25;;
41532;SDS011;27262;-35.248;149.138;2023-04-21T11:34:18;5.68;;;3.72;;
41532;SDS011;27262;-35.248;149.138;2023-04-21T11:36:50;4.22;;;3.03;;
41532;SDS011;27262;-35.248;149.138;2023-04-21T11:39:20;3.97;;;3.22;;
41532;SDS011;27262;-35.248;149.138;2023-04-21T11:41:51;6.70;;;3.28;;
41532;SDS011;27262;-35.248;149.138;2023-04-21T11:47:12;3.67;;;3.33;;
41532;SDS011;27262;-35.248;149.138;2023-04-21T11:49:47;4.15;;;3.17;;
41532;SDS011;27262;-35.248;149.138;2023-04-21T11:52:25;3.65;;;3.28;;
41532;SDS011;27262;-35.248;149.138;2023-04-21T11:55:02;3.50;;;3.10;;
41532;SDS011;27262;-35.248;149.138;2023-04-21T11:57:33;6.10;;;3.38;;
41532;SDS011;27262;-35.248;149.138;2023-04-21T12:00:04;4.68;;;3.13;;
41532;SDS011;27262;-35.248;149.138;2023-04-21T12:02:41;4.60;;;3.63;;
41532;SDS011;27262;-35.248;149.138;2023-04-21T12:05:12;4.10;;;3.63;;
41532;SDS011;27262;-35.248;149.138;2023-04-21T12:07:44;3.38;;;2.97;;
41532;SDS011;27262;-35.248;149.138;2023-04-21T12:10:20;5.45;;;3.35;;
41532;SDS011;27262;-35.248;149.138;2023-04-21T12:12:50;5.32;;;3.83;;
41532;SDS011;27262;-35.248;149.138;2023-04-21T12:15:20;4.88;;;3.28;;
41532;SDS011;27262;-35.248;149.138;2023-04-21T12:17:52;4.15;;;3.33;;
41532;SDS011;27262;-35.248;149.138;2023-04-21T12:20:23;3.45;;;3.15;;
41532;SDS011;27262;-35.248;149.138;2023-04-21T12:22:57;3.30;;;2.95;;
41532;SDS011;27262;-35.248;149.138;2023-04-21T12:25:28;5.22;;;3.75;;
41532;SDS011;27262;-35.248;149.138;2023-04-21T12:27:58;3.40;;;3.10;;
41532;SDS011;27262;-35.248;149.138;2023-04-21T12:30:29;3.28;;;2.97;;
41532;SDS011;27262;-35.248;149.138;2023-04-21T12:33:03;5.43;;;3.45;;
41532;SDS011;27262;-35.248;149.138;2023-04-21T12:35:33;3.88;;;3.50;;
41532;SDS011;27262;-35.248;149.138;2023-04-21T12:38:05;3.83;;;3.05;;
41532;SDS011;27262;-35.248;149.138;2023-04-21T12:40:35;4.18;;;3.53;;
41532;SDS011;27262;-35.248;149.138;2023-04-21T12:43:06;4.75;;;3.30;;
41532;SDS011;27262;-35.248;149.138;2023-04-21T12:45:36;3.67;;;3.20;;
41532;SDS011;27262;-35.248;149.138;2023-04-21T12:48:06;3.97;;;3.25;;
41532;SDS011;27262;-35.248;149.138;2023-04-21T12:50:37;5.65;;;3.47;;
41532;SDS011;27262;-35.248;149.138;2023-04-21T12:53:08;3.53;;;3.03;;
41532;SDS011;27262;-35.248;149.138;2023-04-21T12:55:38;5.53;;;3.20;;
41532;SDS011;27262;-35.248;149.138;2023-04-21T12:58:27;4.40;;;3.40;;
41532;SDS011;27262;-35.248;149.138;2023-04-21T13:00:57;4.90;;;3.20;;
41532;SDS011;27262;-35.248;149.138;2023-04-21T13:03:27;5.35;;;3.55;;
41532;SDS011;27262;-35.248;149.138;2023-04-21T13:05:58;6.22;;;3.63;;
41532;SDS011;27262;-35.248;149.138;2023-04-21T13:08:28;3.80;;;3.38;;
41532;SDS011;27262;-35.248;149.138;2023-04-21T13:10:58;5.40;;;3.78;;
41532;SDS011;27262;-35.248;149.138;2023-04-21T13:13:29;4.00;;;3.40;;
41532;SDS011;27262;-35.248;149.138;2023-04-21T13:15:59;4.40;;;3.33;;
41532;SDS011;27262;-35.248;149.138;2023-04-21T13:18:29;8.63;;;3.80;;
41532;SDS011;27262;-35.248;149.138;2023-04-21T13:21:02;4.53;;;3.78;;
41532;SDS011;27262;-35.248;149.138;2023-04-21T13:23:33;6.03;;;3.60;;
41532;SDS011;27262;-35.248;149.138;2023-04-21T13:26:03;5.90;;;3.38;;
41532;SDS011;27262;-35.248;149.138;2023-04-21T13:28:34;4.68;;;3.95;;
41532;SDS011;27262;-35.248;149.138;2023-04-21T13:31:06;5.82;;;3.63;;
41532;SDS011;27262;-35.248;149.138;2023-04-21T13:33:36;6.28;;;3.72;;
41532;SDS011;27262;-35.248;149.138;2023-04-21T13:36:06;4.72;;;3.35;;
41532;SDS011;27262;-35.248;149.138;2023-04-21T13:38:39;5.47;;;3.88;;
41532;SDS011;27262;-35.248;149.138;2023-04-21T13:41:10;4.25;;;3.42;;
41532;SDS011;27262;-35.248;149.138;2023-04-21T13:43:41;5.13;;;3.70;;
41532;SDS011;27262;-35.248;149.138;2023-04-21T13:46:12;5.80;;;4.13;;
41532;SDS011;27262;-35.248;149.138;2023-04-21T13:48:43;6.78;;;3.65;;
41532;SDS011;27262;-35.248;149.138;2023-04-21T13:51:13;5.70;;;3.80;;
41532;SDS011;27262;-35.248;149.138;2023-04-21T13:53:44;4.82;;;3.67;;
41532;SDS011;27262;-35.248;149.138;2023-04-21T13:56:14;4.90;;;3.65;;
41532;SDS011;27262;-35.248;149.138;2023-04-21T13:58:45;4.10;;;3.65;;
41532;SDS011;27262;-35.248;149.138;2023-04-21T14:01:15;3.97;;;3.38;;
41532;SDS011;27262;-35.248;149.138;2023-04-21T14:03:47;3.92;;;3.45;;
41532;SDS011;27262;-35.248;149.138;2023-04-21T14:06:19;4.63;;;3.47;;
41532;SDS011;27262;-35.248;149.138;2023-04-21T14:08:49;4.82;;;3.85;;
41532;SDS011;27262;-35.248;149.138;2023-04-21T14:11:19;5.00;;;4.15;;
41532;SDS011;27262;-35.248;149.138;2023-04-21T14:13:50;3.88;;;3.47;;
41532;SDS011;27262;-35.248;149.138;2023-04-21T14:16:35;4.97;;;3.67;;
41532;SDS011;27262;-35.248;149.138;2023-04-21T14:19:06;6.30;;;3.80;;
41532;SDS011;27262;-35.248;149.138;2023-04-21T14:21:37;6.22;;;3.15;;
41532;SDS011;27262;-35.248;149.138;2023-04-21T14:24:08;4.35;;;3.42;;
41532;SDS011;27262;-35.248;149.138;2023-04-21T14:26:38;4.35;;;3.38;;
41532;SDS011;27262;-35.248;149.138;2023-04-21T14:29:08;5.43;;;3.65;;
41532;SDS011;27262;-35.248;149.138;2023-04-21T14:31:39;5.47;;;3.65;;
41532;SDS011;27262;-35.248;149.138;2023-04-21T14:34:09;3.90;;;3.50;;
41532;SDS011;27262;-35.248;149.138;2023-04-21T14:36:39;4.88;;;3.95;;
41532;SDS011;27262;-35.248;149.138;2023-04-21T14:39:10;4.72;;;3.83;;
41532;SDS011;27262;-35.248;149.138;2023-04-21T14:41:42;4.85;;;3.80;;